Frenchville, PA (16836)

11:45 AM EDT on July 23, 2016 (GMT -0400)
Clearfield-Lawrence | | Change Station

Elev 1516 ft 41.05 °N, 78.41 °W | Updated 51 minutes ago

Mostly Cloudy
Mostly Cloudy
83 °F
Feels Like 86 °F
N
10
Wind Variable Wind from WNW

Today
High -- | Low -- °F
--% Chance of Precip.
Yesterday
High -- | Low -- °F
Precip. -- in
Pressure 29.99 in
Visibility 10.0 miles
Clouds Mostly Cloudy 2300 ft
Mostly Cloudy 2900 ft
Heat Index 86 °F
Dew Point 68 °F
Humidity 60%
Rainfall 0.00 in
Snow Depth Not available.
6:00 AM 8:37 PM
Waning Gibbous, 84% visible
METAR KFIG 231454Z AUTO 29009KT 10SM BKN023 BKN029 28/20 A3003 RMK AO2 SLP155 T02830200 53006
Pressure 29.99 in
Visibility 10.0 miles
Clouds Mostly Cloudy 2300 ft
Mostly Cloudy 2900 ft
Heat Index 86 °F
Dew Point 68 °F
Humidity 60%
Rainfall 0.00 in
Snow Depth Not available.
6:00 AM 8:37 PM
Waning Gibbous, 84% visible
METAR KFIG 231454Z AUTO 29009KT 10SM BKN023 BKN029 28/20 A3003 RMK AO2 SLP155 T02830200 53006

10-Day Weather Forecast

Almanac

Astronomy

Jul. 23, 2016 Rise Set
Actual Time
Civil Twilight
Nautical Twilight
Astronomical Twilight
Moon
Length of Visible Light
Length of Day
Tomorrow will be .
, % of the Moon is Illuminated

Today's Extremes

State Highs State Lows

Community

WunderPhotos

Upload Photos

1,926,848 photos uploaded!

WunderBlog® & News

Nearby

Air Quality

  Air Quality AQ Index Pollutant
Not available.

Snow Depth

Station Depth Elevation

Earthquake Activity

City Distance Mag. Time & Date
Minimum magnitude displayed is 2.5.

Coastal Water Temperatures

Place Temperature

Stations

Nearby Weather Stations

Station Location Temp. Windchill Dew Point Humidity Wind Precip. Elev Updated Type
                   

Watches & Warnings

There are currently no watches in effect.